sensor_id;sensor_type;location;lat;lon;timestamp;pressure;altitude;pressure_sealevel;temperature
78369;BMP280;71113;43.092;-89.268;2024-01-15T00:00:42;98585.47;;;18.90
78369;BMP280;71113;43.092;-89.268;2024-01-15T00:03:08;98577.22;;;18.83
78369;BMP280;71113;43.092;-89.268;2024-01-15T00:05:35;98580.19;;;18.90
78369;BMP280;71113;43.092;-89.268;2024-01-15T00:08:01;98587.38;;;18.98
78369;BMP280;71113;43.092;-89.268;2024-01-15T00:10:26;98585.03;;;19.05
78369;BMP280;71113;43.092;-89.268;2024-01-15T00:12:52;98581.59;;;19.13
78369;BMP280;71113;43.092;-89.268;2024-01-15T00:15:18;98593.75;;;19.14
78369;BMP280;71113;43.092;-89.268;2024-01-15T00:17:45;98589.38;;;19.18
78369;BMP280;71113;43.092;-89.268;2024-01-15T00:20:11;98589.69;;;19.26
78369;BMP280;71113;43.092;-89.268;2024-01-15T00:22:37;98590.47;;;19.26
78369;BMP280;71113;43.092;-89.268;2024-01-15T00:25:04;98584.88;;;19.28
78369;BMP280;71113;43.092;-89.268;2024-01-15T00:27:30;98593.75;;;19.32
78369;BMP280;71113;43.092;-89.268;2024-01-15T00:29:56;98602.00;;;19.39
78369;BMP280;71113;43.092;-89.268;2024-01-15T00:32:23;98602.78;;;19.39
78369;BMP280;71113;43.092;-89.268;2024-01-15T00:34:49;98603.72;;;19.43
78369;BMP280;71113;43.092;-89.268;2024-01-15T00:37:16;98616.78;;;19.48
78369;BMP280;71113;43.092;-89.268;2024-01-15T00:39:42;98607.88;;;19.53
78369;BMP280;71113;43.092;-89.268;2024-01-15T00:42:08;98618.16;;;19.46
78369;BMP280;71113;43.092;-89.268;2024-01-15T00:44:34;98622.19;;;19.35
78369;BMP280;71113;43.092;-89.268;2024-01-15T00:46:59;98618.34;;;19.32
78369;BMP280;71113;43.092;-89.268;2024-01-15T00:49:27;98613.69;;;19.29
78369;BMP280;71113;43.092;-89.268;2024-01-15T00:51:53;98622.53;;;19.25
78369;BMP280;71113;43.092;-89.268;2024-01-15T00:54:19;98610.25;;;19.20
78369;BMP280;71113;43.092;-89.268;2024-01-15T00:56:45;98621.75;;;19.15
78369;BMP280;71113;43.092;-89.268;2024-01-15T00:59:10;98628.13;;;19.14
78369;BMP280;71113;43.092;-89.268;2024-01-15T01:01:41;98632.47;;;19.10
78369;BMP280;71113;43.092;-89.268;2024-01-15T01:04:09;98637.91;;;19.05
78369;BMP280;71113;43.092;-89.268;2024-01-15T01:06:35;98623.59;;;19.06
78369;BMP280;71113;43.092;-89.268;2024-01-15T01:09:01;98627.19;;;19.02
78369;BMP280;71113;43.092;-89.268;2024-01-15T01:11:27;98631.03;;;18.96
78369;BMP280;71113;43.092;-89.268;2024-01-15T01:13:54;98626.25;;;18.98
78369;BMP280;71113;43.092;-89.268;2024-01-15T01:16:22;98631.03;;;18.96
78369;BMP280;71113;43.092;-89.268;2024-01-15T01:18:48;98633.50;;;18.92
78369;BMP280;71113;43.092;-89.268;2024-01-15T01:21:14;98618.72;;;18.82
78369;BMP280;71113;43.092;-89.268;2024-01-15T01:23:40;98632.22;;;18.81
78369;BMP280;71113;43.092;-89.268;2024-01-15T01:26:06;98628.81;;;18.80
78369;BMP280;71113;43.092;-89.268;2024-01-15T01:28:32;98630.50;;;18.76
78369;BMP280;71113;43.092;-89.268;2024-01-15T01:30:59;98621.38;;;18.74
78369;BMP280;71113;43.092;-89.268;2024-01-15T01:33:25;98617.75;;;18.70
78369;BMP280;71113;43.092;-89.268;2024-01-15T01:35:52;98624.25;;;18.64
78369;BMP280;71113;43.092;-89.268;2024-01-15T01:38:19;98624.88;;;18.61
78369;BMP280;71113;43.092;-89.268;2024-01-15T01:40:46;98621.78;;;18.59
78369;BMP280;71113;43.092;-89.268;2024-01-15T01:43:12;98626.09;;;18.54
78369;BMP280;71113;43.092;-89.268;2024-01-15T01:45:38;98625.59;;;18.52
78369;BMP280;71113;43.092;-89.268;2024-01-15T01:48:05;98615.38;;;18.51
78369;BMP280;71113;43.092;-89.268;2024-01-15T01:50:32;98615.97;;;18.48
78369;BMP280;71113;43.092;-89.268;2024-01-15T01:53:00;98619.81;;;18.42
78369;BMP280;71113;43.092;-89.268;2024-01-15T01:55:29;98617.16;;;18.33
78369;BMP280;71113;43.092;-89.268;2024-01-15T01:57:59;98623.03;;;18.30
78369;BMP280;71113;43.092;-89.268;2024-01-15T02:00:27;98623.31;;;18.29
78369;BMP280;71113;43.092;-89.268;2024-01-15T02:02:55;98614.94;;;18.26
78369;BMP280;71113;43.092;-89.268;2024-01-15T02:05:22;98618.19;;;18.23
78369;BMP280;71113;43.092;-89.268;2024-01-15T02:07:50;98604.81;;;18.20
78369;BMP280;71113;43.092;-89.268;2024-01-15T02:10:17;98600.47;;;18.24
78369;BMP280;71113;43.092;-89.268;2024-01-15T02:12:44;98607.94;;;18.22
78369;BMP280;71113;43.092;-89.268;2024-01-15T02:15:10;98607.00;;;18.26
78369;BMP280;71113;43.092;-89.268;2024-01-15T02:17:57;98615.53;;;18.23
78369;BMP280;71113;43.092;-89.268;2024-01-15T02:20:25;98619.44;;;18.26
78369;BMP280;71113;43.092;-89.268;2024-01-15T02:22:52;98601.66;;;18.40
78369;BMP280;71113;43.092;-89.268;2024-01-15T02:25:19;98600.75;;;18.53
78369;BMP280;71113;43.092;-89.268;2024-01-15T02:27:47;98592.25;;;18.65
78369;BMP280;71113;43.092;-89.268;2024-01-15T02:30:14;98586.34;;;18.77
78369;BMP280;71113;43.092;-89.268;2024-01-15T02:32:42;98590.88;;;18.85
78369;BMP280;71113;43.092;-89.268;2024-01-15T02:35:08;98594.63;;;18.84
78369;BMP280;71113;43.092;-89.268;2024-01-15T02:37:36;98588.56;;;18.83
78369;BMP280;71113;43.092;-89.268;2024-01-15T02:40:02;98593.50;;;18.85
78369;BMP280;71113;43.092;-89.268;2024-01-15T02:42:30;98585.00;;;18.88
78369;BMP280;71113;43.092;-89.268;2024-01-15T02:44:56;98581.22;;;18.80
78369;BMP280;71113;43.092;-89.268;2024-01-15T02:47:23;98585.13;;;18.74
78369;BMP280;71113;43.092;-89.268;2024-01-15T02:49:50;98581.69;;;18.65
78369;BMP280;71113;43.092;-89.268;2024-01-15T02:52:17;98593.63;;;18.63
78369;BMP280;71113;43.092;-89.268;2024-01-15T02:54:44;98587.88;;;18.61
78369;BMP280;71113;43.092;-89.268;2024-01-15T02:57:11;98583.53;;;18.56
78369;BMP280;71113;43.092;-89.268;2024-01-15T02:59:37;98584.63;;;18.55
78369;BMP280;71113;43.092;-89.268;2024-01-15T03:02:05;98572.47;;;18.54
78369;BMP280;71113;43.092;-89.268;2024-01-15T03:04:31;98584.44;;;18.51
78369;BMP280;71113;43.092;-89.268;2024-01-15T03:06:58;98582.72;;;18.47
78369;BMP280;71113;43.092;-89.268;2024-01-15T03:09:25;98584.56;;;18.46
78369;BMP280;71113;43.092;-89.268;2024-01-15T03:11:51;98587.34;;;18.41
78369;BMP280;71113;43.092;-89.268;2024-01-15T03:14:18;98589.38;;;18.44
78369;BMP280;71113;43.092;-89.268;2024-01-15T03:16:46;98580.00;;;18.38
78369;BMP280;71113;43.092;-89.268;2024-01-15T03:19:12;98587.00;;;18.34
78369;BMP280;71113;43.092;-89.268;2024-01-15T03:21:37;98577.84;;;18.32
78369;BMP280;71113;43.092;-89.268;2024-01-15T03:24:04;98587.00;;;18.34
78369;BMP280;71113;43.092;-89.268;2024-01-15T03:26:30;98583.78;;;18.46
78369;BMP280;71113;43.092;-89.268;2024-01-15T03:28:56;98573.53;;;18.53
78369;BMP280;71113;43.092;-89.268;2024-01-15T03:31:23;98579.34;;;18.55
78369;BMP280;71113;43.092;-89.268;2024-01-15T03:33:49;98569.25;;;18.66
78369;BMP280;71113;43.092;-89.268;2024-01-15T03:36:15;98568.50;;;18.74
78369;BMP280;71113;43.092;-89.268;2024-01-15T03:38:42;98568.50;;;18.74
78369;BMP280;71113;43.092;-89.268;2024-01-15T03:41:08;98568.63;;;18.77
78369;BMP280;71113;43.092;-89.268;2024-01-15T03:43:34;98574.69;;;18.69
78369;BMP280;71113;43.092;-89.268;2024-01-15T03:46:00;98572.19;;;18.64
78369;BMP280;71113;43.092;-89.268;2024-01-15T03:48:27;98570.31;;;18.56
78369;BMP280;71113;43.092;-89.268;2024-01-15T03:50:53;98577.13;;;18.57
78369;BMP280;71113;43.092;-89.268;2024-01-15T03:53:19;98574.66;;;18.52
78369;BMP280;71113;43.092;-89.268;2024-01-15T03:55:46;98572.44;;;18.45
78369;BMP280;71113;43.092;-89.268;2024-01-15T03:58:12;98572.94;;;18.47
78369;BMP280;71113;43.092;-89.268;2024-01-15T04:00:40;98579.03;;;18.56
78369;BMP280;71113;43.092;-89.268;2024-01-15T04:03:06;98578.72;;;18.67
78369;BMP280;71113;43.092;-89.268;2024-01-15T04:05:32;98577.34;;;18.69
78369;BMP280;71113;43.092;-89.268;2024-01-15T04:07:58;98585.41;;;18.64
78369;BMP280;71113;43.092;-89.268;2024-01-15T04:10:24;98579.97;;;18.61
78369;BMP280;71113;43.092;-89.268;2024-01-15T04:12:50;98581.19;;;18.54
78369;BMP280;71113;43.092;-89.268;2024-01-15T04:15:16;98581.03;;;18.51
78369;BMP280;71113;43.092;-89.268;2024-01-15T04:17:42;98580.53;;;18.49
78369;BMP280;71113;43.092;-89.268;2024-01-15T04:20:09;98575.88;;;18.46
78369;BMP280;71113;43.092;-89.268;2024-01-15T04:22:35;98577.38;;;18.38
78369;BMP280;71113;43.092;-89.268;2024-01-15T04:25:02;98588.72;;;18.39
78369;BMP280;71113;43.092;-89.268;2024-01-15T04:27:29;98581.91;;;18.38
78369;BMP280;71113;43.092;-89.268;2024-01-15T04:29:55;98588.56;;;18.35
78369;BMP280;71113;43.092;-89.268;2024-01-15T04:32:21;98579.69;;;18.31
78369;BMP280;71113;43.092;-89.268;2024-01-15T04:34:47;98579.22;;;18.29
78369;BMP280;71113;43.092;-89.268;2024-01-15T04:37:15;98579.53;;;18.28
78369;BMP280;71113;43.092;-89.268;2024-01-15T04:39:41;98582.47;;;18.26
78369;BMP280;71113;43.092;-89.268;2024-01-15T04:42:07;98578.25;;;18.25
78369;BMP280;71113;43.092;-89.268;2024-01-15T04:44:34;98585.72;;;18.23
78369;BMP280;71113;43.092;-89.268;2024-01-15T04:47:00;98584.47;;;18.20
78369;BMP280;71113;43.092;-89.268;2024-01-15T04:49:25;98588.16;;;18.19
78369;BMP280;71113;43.092;-89.268;2024-01-15T04:51:52;98580.88;;;18.16
78369;BMP280;71113;43.092;-89.268;2024-01-15T04:54:19;98580.22;;;18.11
78369;BMP280;71113;43.092;-89.268;2024-01-15T04:56:45;98586.09;;;18.08
78369;BMP280;71113;43.092;-89.268;2024-01-15T04:59:11;98581.91;;;18.07
78369;BMP280;71113;43.092;-89.268;2024-01-15T05:01:38;98582.03;;;18.02
78369;BMP280;71113;43.092;-89.268;2024-01-15T05:04:03;98583.13;;;18.01
78369;BMP280;71113;43.092;-89.268;2024-01-15T05:06:29;98597.41;;;18.00
78369;BMP280;71113;43.092;-89.268;2024-01-15T05:08:55;98596.25;;;17.92
78369;BMP280;71113;43.092;-89.268;2024-01-15T05:11:21;98592.06;;;17.91
78369;BMP280;71113;43.092;-89.268;2024-01-15T05:13:47;98588.47;;;17.87
78369;BMP280;71113;43.092;-89.268;2024-01-15T05:16:13;98599.31;;;17.85
78369;BMP280;71113;43.092;-89.268;2024-01-15T05:18:39;98592.97;;;17.86
78369;BMP280;71113;43.092;-89.268;2024-01-15T05:21:04;98588.88;;;17.80
78369;BMP280;71113;43.092;-89.268;2024-01-15T05:23:34;98607.34;;;17.80
78369;BMP280;71113;43.092;-89.268;2024-01-15T05:26:00;98601.63;;;17.78
78369;BMP280;71113;43.092;-89.268;2024-01-15T05:28:26;98595.97;;;17.71
78369;BMP280;71113;43.092;-89.268;2024-01-15T05:30:52;98595.00;;;17.67
78369;BMP280;71113;43.092;-89.268;2024-01-15T05:33:18;98580.50;;;17.78
78369;BMP280;71113;43.092;-89.268;2024-01-15T05:35:44;98577.13;;;17.86
78369;BMP280;71113;43.092;-89.268;2024-01-15T05:38:10;98572.50;;;17.92
78369;BMP280;71113;43.092;-89.268;2024-01-15T05:40:35;98585.81;;;17.87
78369;BMP280;71113;43.092;-89.268;2024-01-15T05:43:01;98581.16;;;17.84
78369;BMP280;71113;43.092;-89.268;2024-01-15T05:45:27;98579.91;;;17.81
78369;BMP280;71113;43.092;-89.268;2024-01-15T05:47:53;98581.69;;;17.72
78369;BMP280;71113;43.092;-89.268;2024-01-15T05:50:19;98583.41;;;17.77
78369;BMP280;71113;43.092;-89.268;2024-01-15T05:52:45;98573.41;;;17.87
78369;BMP280;71113;43.092;-89.268;2024-01-15T05:55:11;98573.91;;;17.89
78369;BMP280;71113;43.092;-89.268;2024-01-15T05:57:36;98576.06;;;17.87
78369;BMP280;71113;43.092;-89.268;2024-01-15T06:00:04;98574.63;;;17.81
78369;BMP280;71113;43.092;-89.268;2024-01-15T06:02:30;98569.94;;;17.78
78369;BMP280;71113;43.092;-89.268;2024-01-15T06:04:56;98576.13;;;17.74
78369;BMP280;71113;43.092;-89.268;2024-01-15T06:07:22;98580.78;;;17.77
78369;BMP280;71113;43.092;-89.268;2024-01-15T06:09:48;98572.81;;;17.90
78369;BMP280;71113;43.092;-89.268;2024-01-15T06:12:14;98561.53;;;17.99
78369;BMP280;71113;43.092;-89.268;2024-01-15T06:14:40;98567.13;;;17.97
78369;BMP280;71113;43.092;-89.268;2024-01-15T06:17:08;98572.81;;;17.90
78369;BMP280;71113;43.092;-89.268;2024-01-15T06:19:34;98564.41;;;17.88
78369;BMP280;71113;43.092;-89.268;2024-01-15T06:22:00;98553.50;;;17.81
78369;BMP280;71113;43.092;-89.268;2024-01-15T06:24:25;98548.22;;;17.81
78369;BMP280;71113;43.092;-89.268;2024-01-15T06:26:51;98550.59;;;17.91
78369;BMP280;71113;43.092;-89.268;2024-01-15T06:29:17;98554.69;;;17.98
78369;BMP280;71113;43.092;-89.268;2024-01-15T06:31:43;98557.66;;;18.05
78369;BMP280;71113;43.092;-89.268;2024-01-15T06:34:09;98547.72;;;18.02
78369;BMP280;71113;43.092;-89.268;2024-01-15T06:36:35;98544.75;;;17.94
78369;BMP280;71113;43.092;-89.268;2024-01-15T06:39:01;98541.31;;;17.94
78369;BMP280;71113;43.092;-89.268;2024-01-15T06:41:27;98539.72;;;17.84
78369;BMP280;71113;43.092;-89.268;2024-01-15T06:43:53;98524.72;;;17.93
78369;BMP280;71113;43.092;-89.268;2024-01-15T06:46:22;98530.50;;;18.04
78369;BMP280;71113;43.092;-89.268;2024-01-15T06:48:48;98532.53;;;18.07
78369;BMP280;71113;43.092;-89.268;2024-01-15T06:51:15;98528.00;;;17.99
78369;BMP280;71113;43.092;-89.268;2024-01-15T06:53:41;98526.41;;;17.89
78369;BMP280;71113;43.092;-89.268;2024-01-15T06:56:06;98525.78;;;17.92
78369;BMP280;71113;43.092;-89.268;2024-01-15T06:58:32;98534.31;;;17.89
78369;BMP280;71113;43.092;-89.268;2024-01-15T07:00:58;98531.41;;;18.00
78369;BMP280;71113;43.092;-89.268;2024-01-15T07:03:24;98526.19;;;18.08
78369;BMP280;71113;43.092;-89.268;2024-01-15T07:05:50;98531.13;;;18.10
78369;BMP280;71113;43.092;-89.268;2024-01-15T07:08:16;98525.81;;;18.01
78369;BMP280;71113;43.092;-89.268;2024-01-15T07:10:42;98520.38;;;17.98
78369;BMP280;71113;43.092;-89.268;2024-01-15T07:13:08;98523.13;;;17.92
78369;BMP280;71113;43.092;-89.268;2024-01-15T07:15:34;98538.97;;;17.92
78369;BMP280;71113;43.092;-89.268;2024-01-15T07:18:00;98538.25;;;18.01
78369;BMP280;71113;43.092;-89.268;2024-01-15T07:20:26;98541.09;;;18.13
78369;BMP280;71113;43.092;-89.268;2024-01-15T07:22:52;98537.81;;;18.16
78369;BMP280;71113;43.092;-89.268;2024-01-15T07:25:18;98533.78;;;18.10
78369;BMP280;71113;43.092;-89.268;2024-01-15T07:27:44;98526.59;;;18.02
78369;BMP280;71113;43.092;-89.268;2024-01-15T07:30:11;98533.28;;;17.99
78369;BMP280;71113;43.092;-89.268;2024-01-15T07:32:37;98531.56;;;18.03
78369;BMP280;71113;43.092;-89.268;2024-01-15T07:35:04;98542.97;;;18.12
78369;BMP280;71113;43.092;-89.268;2024-01-15T07:37:30;98538.00;;;18.19
78369;BMP280;71113;43.092;-89.268;2024-01-15T07:39:56;98535.06;;;18.21
78369;BMP280;71113;43.092;-89.268;2024-01-15T07:42:22;98525.28;;;18.13
78369;BMP280;71113;43.092;-89.268;2024-01-15T07:44:48;98523.22;;;18.10
78369;BMP280;71113;43.092;-89.268;2024-01-15T07:47:14;98526.00;;;18.05
78369;BMP280;71113;43.092;-89.268;2024-01-15T07:49:40;98536.88;;;18.12
78369;BMP280;71113;43.092;-89.268;2024-01-15T07:52:05;98540.63;;;18.19
78369;BMP280;71113;43.092;-89.268;2024-01-15T07:54:32;98543.47;;;18.23
78369;BMP280;71113;43.092;-89.268;2024-01-15T07:57:02;98550.91;;;18.21
78369;BMP280;71113;43.092;-89.268;2024-01-15T07:59:30;98552.09;;;18.15
78369;BMP280;71113;43.092;-89.268;2024-01-15T08:01:57;98553.53;;;18.12
78369;BMP280;71113;43.092;-89.268;2024-01-15T08:04:23;98568.22;;;18.05
78369;BMP280;71113;43.092;-89.268;2024-01-15T08:06:49;98570.94;;;18.13
78369;BMP280;71113;43.092;-89.268;2024-01-15T08:09:15;98566.94;;;18.24
78369;BMP280;71113;43.092;-89.268;2024-01-15T08:11:42;98569.25;;;18.26
78369;BMP280;71113;43.092;-89.268;2024-01-15T08:14:09;98574.19;;;18.19
78369;BMP280;71113;43.092;-89.268;2024-01-15T08:16:35;98582.72;;;18.16
78369;BMP280;71113;43.092;-89.268;2024-01-15T08:19:01;98581.50;;;18.13
78369;BMP280;71113;43.092;-89.268;2024-01-15T08:21:27;98581.28;;;18.10
78369;BMP280;71113;43.092;-89.268;2024-01-15T08:24:01;98588.66;;;18.21
78369;BMP280;71113;43.092;-89.268;2024-01-15T08:26:28;98593.53;;;18.28
78369;BMP280;71113;43.092;-89.268;2024-01-15T08:28:54;98595.53;;;18.31
78369;BMP280;71113;43.092;-89.268;2024-01-15T08:31:20;98598.44;;;18.21
78369;BMP280;71113;43.092;-89.268;2024-01-15T08:33:46;98597.94;;;18.19
78369;BMP280;71113;43.092;-89.268;2024-01-15T08:36:12;98592.31;;;18.12
78369;BMP280;71113;43.092;-89.268;2024-01-15T08:38:38;98605.41;;;18.17
78369;BMP280;71113;43.092;-89.268;2024-01-15T08:41:04;98609.38;;;18.28
78369;BMP280;71113;43.092;-89.268;2024-01-15T08:43:31;98605.31;;;18.31
78369;BMP280;71113;43.092;-89.268;2024-01-15T08:45:57;98610.91;;;18.29
78369;BMP280;71113;43.092;-89.268;2024-01-15T08:48:23;98613.22;;;18.22
78369;BMP280;71113;43.092;-89.268;2024-01-15T08:50:49;98619.56;;;18.21
78369;BMP280;71113;43.092;-89.268;2024-01-15T08:53:15;98610.69;;;18.17
78369;BMP280;71113;43.092;-89.268;2024-01-15T08:55:43;98603.13;;;18.24
78369;BMP280;71113;43.092;-89.268;2024-01-15T08:58:10;98598.84;;;18.37
78369;BMP280;71113;43.092;-89.268;2024-01-15T09:00:36;98596.97;;;18.37
78369;BMP280;71113;43.092;-89.268;2024-01-15T09:03:02;98591.34;;;18.30
78369;BMP280;71113;43.092;-89.268;2024-01-15T09:05:28;98592.56;;;18.24
78369;BMP280;71113;43.092;-89.268;2024-01-15T09:07:54;98595.31;;;18.19
78369;BMP280;71113;43.092;-89.268;2024-01-15T09:10:20;98592.66;;;18.19
78369;BMP280;71113;43.092;-89.268;2024-01-15T09:12:46;98588.53;;;18.26
78369;BMP280;71113;43.092;-89.268;2024-01-15T09:17:57;98603.34;;;18.36
78369;BMP280;71113;43.092;-89.268;2024-01-15T09:20:24;98600.03;;;18.31
78369;BMP280;71113;43.092;-89.268;2024-01-15T09:22:51;98592.56;;;18.24
78369;BMP280;71113;43.092;-89.268;2024-01-15T09:25:17;98589.84;;;18.15
78369;BMP280;71113;43.092;-89.268;2024-01-15T09:27:44;98587.56;;;18.22
78369;BMP280;71113;43.092;-89.268;2024-01-15T09:30:10;98587.00;;;18.34
78369;BMP280;71113;43.092;-89.268;2024-01-15T09:32:36;98590.78;;;18.42
78369;BMP280;71113;43.092;-89.268;2024-01-15T09:35:02;98588.56;;;18.35
78369;BMP280;71113;43.092;-89.268;2024-01-15T09:37:29;98603.31;;;18.28
78369;BMP280;71113;43.092;-89.268;2024-01-15T09:39:55;98602.03;;;18.25
78369;BMP280;71113;43.092;-89.268;2024-01-15T09:42:23;98607.44;;;18.20
78369;BMP280;71113;43.092;-89.268;2024-01-15T09:44:51;98602.03;;;18.25
78369;BMP280;71113;43.092;-89.268;2024-01-15T09:47:18;98604.44;;;18.35
78369;BMP280;71113;43.092;-89.268;2024-01-15T09:49:44;98608.00;;;18.39
78369;BMP280;71113;43.092;-89.268;2024-01-15T09:52:11;98609.97;;;18.34
78369;BMP280;71113;43.092;-89.268;2024-01-15T09:54:37;98616.19;;;18.29
78369;BMP280;71113;43.092;-89.268;2024-01-15T09:57:04;98621.00;;;18.27
78369;BMP280;71113;43.092;-89.268;2024-01-15T09:59:31;98614.28;;;18.21
78369;BMP280;71113;43.092;-89.268;2024-01-15T10:01:57;98619.28;;;18.31
78369;BMP280;71113;43.092;-89.268;2024-01-15T10:04:24;98623.56;;;18.41
78369;BMP280;71113;43.092;-89.268;2024-01-15T10:07:14;98620.91;;;18.41
78369;BMP280;71113;43.092;-89.268;2024-01-15T10:09:45;98617.63;;;18.35
78369;BMP280;71113;43.092;-89.268;2024-01-15T10:12:12;98618.81;;;18.29
78369;BMP280;71113;43.092;-89.268;2024-01-15T10:14:38;98623.16;;;18.25
78369;BMP280;71113;43.092;-89.268;2024-01-15T10:17:13;98626.41;;;18.22
78369;BMP280;71113;43.092;-89.268;2024-01-15T10:19:40;98619.78;;;18.33
78369;BMP280;71113;43.092;-89.268;2024-01-15T10:22:08;98617.97;;;18.42
78369;BMP280;71113;43.092;-89.268;2024-01-15T10:24:36;98612.69;;;18.42
78369;BMP280;71113;43.092;-89.268;2024-01-15T10:27:07;98618.69;;;18.34
78369;BMP280;71113;43.092;-89.268;2024-01-15T10:29:33;98623.97;;;18.34
78369;BMP280;71113;43.092;-89.268;2024-01-15T10:31:59;98622.69;;;18.23
78369;BMP280;71113;43.092;-89.268;2024-01-15T10:34:26;98618.81;;;18.29
78369;BMP280;71113;43.092;-89.268;2024-01-15T10:36:52;98620.75;;;18.37
78369;BMP280;71113;43.092;-89.268;2024-01-15T10:39:24;98624.50;;;18.45
78369;BMP280;71113;43.092;-89.268;2024-01-15T10:41:50;98622.16;;;18.43
78369;BMP280;71113;43.092;-89.268;2024-01-15T10:44:17;98610.75;;;18.34
78369;BMP280;71113;43.092;-89.268;2024-01-15T10:46:43;98598.16;;;18.31
78369;BMP280;71113;43.092;-89.268;2024-01-15T10:49:11;98612.59;;;18.25
78369;BMP280;71113;43.092;-89.268;2024-01-15T10:51:38;98609.03;;;18.30
78369;BMP280;71113;43.092;-89.268;2024-01-15T10:54:04;98605.38;;;18.39
78369;BMP280;71113;43.092;-89.268;2024-01-15T10:56:32;98601.03;;;18.43
78369;BMP280;71113;43.092;-89.268;2024-01-15T10:58:59;98615.31;;;18.42
78369;BMP280;71113;43.092;-89.268;2024-01-15T11:01:25;98608.31;;;18.38
78369;BMP280;71113;43.092;-89.268;2024-01-15T11:03:51;98604.97;;;18.23
78369;BMP280;71113;43.092;-89.268;2024-01-15T11:06:22;98606.84;;;18.23
78369;BMP280;71113;43.092;-89.268;2024-01-15T11:08:49;98608.47;;;18.33
78369;BMP280;71113;43.092;-89.268;2024-01-15T11:11:18;98611.59;;;18.43
78369;BMP280;71113;43.092;-89.268;2024-01-15T11:13:46;98621.56;;;18.46
78369;BMP280;71113;43.092;-89.268;2024-01-15T11:16:15;98611.72;;;18.38
78369;BMP280;71113;43.092;-89.268;2024-01-15T11:19:02;98610.75;;;18.34
78369;BMP280;71113;43.092;-89.268;2024-01-15T11:21:29;98618.34;;;18.27
78369;BMP280;71113;43.092;-89.268;2024-01-15T11:24:01;98621.47;;;18.29
78369;BMP280;71113;43.092;-89.268;2024-01-15T11:26:37;98613.00;;;18.41
78369;BMP280;71113;43.092;-89.268;2024-01-15T11:29:05;98608.81;;;18.48
78369;BMP280;71113;43.092;-89.268;2024-01-15T11:34:07;98607.19;;;18.39
78369;BMP280;71113;43.092;-89.268;2024-01-15T11:37:03;98621.31;;;18.34
78369;BMP280;71113;43.092;-89.268;2024-01-15T11:42:03;98645.09;;;18.34
78369;BMP280;71113;43.092;-89.268;2024-01-15T11:44:49;98651.69;;;18.45
78369;BMP280;71113;43.092;-89.268;2024-01-15T11:47:15;98649.34;;;18.44
78369;BMP280;71113;43.092;-89.268;2024-01-15T11:50:00;98635.47;;;18.38
78369;BMP280;71113;43.092;-89.268;2024-01-15T11:52:38;98642.97;;;18.36
78369;BMP280;71113;43.092;-89.268;2024-01-15T12:00:14;98656.03;;;18.41
78369;BMP280;71113;43.092;-89.268;2024-01-15T12:02:45;98656.38;;;18.48
78369;BMP280;71113;43.092;-89.268;2024-01-15T12:05:12;98656.69;;;18.47
78369;BMP280;71113;43.092;-89.268;2024-01-15T12:07:43;98653.38;;;18.41
78369;BMP280;71113;43.092;-89.268;2024-01-15T12:10:16;98656.16;;;18.36
78369;BMP280;71113;43.092;-89.268;2024-01-15T12:13:05;98668.84;;;18.25
78369;BMP280;71113;43.092;-89.268;2024-01-15T12:15:32;98667.00;;;18.35
78369;BMP280;71113;43.092;-89.268;2024-01-15T12:18:00;98670.97;;;18.46
78369;BMP280;71113;43.092;-89.268;2024-01-15T12:20:28;98665.41;;;18.47
78369;BMP280;71113;43.092;-89.268;2024-01-15T12:22:54;98673.44;;;18.42
78369;BMP280;71113;43.092;-89.268;2024-01-15T12:25:21;98671.88;;;18.41
78369;BMP280;71113;43.092;-89.268;2024-01-15T12:27:48;98679.94;;;18.36
78369;BMP280;71113;43.092;-89.268;2024-01-15T12:30:14;98680.47;;;18.24
78369;BMP280;71113;43.092;-89.268;2024-01-15T12:32:41;98675.56;;;18.32
78369;BMP280;71113;43.092;-89.268;2024-01-15T12:35:07;98684.75;;;18.43
78369;BMP280;71113;43.092;-89.268;2024-01-15T12:37:35;98677.50;;;18.48
78369;BMP280;71113;43.092;-89.268;2024-01-15T12:40:03;98665.69;;;18.46
78369;BMP280;71113;43.092;-89.268;2024-01-15T12:42:32;98666.34;;;18.51
78369;BMP280;71113;43.092;-89.268;2024-01-15T12:45:00;98670.09;;;18.59
78369;BMP280;71113;43.092;-89.268;2024-01-15T12:47:26;98675.09;;;18.61
78369;BMP280;71113;43.092;-89.268;2024-01-15T12:49:52;98672.78;;;18.68
78369;BMP280;71113;43.092;-89.268;2024-01-15T12:52:21;98669.56;;;18.71
78369;BMP280;71113;43.092;-89.268;2024-01-15T12:54:48;98674.22;;;18.74
78369;BMP280;71113;43.092;-89.268;2024-01-15T12:57:16;98679.38;;;18.79
78369;BMP280;71113;43.092;-89.268;2024-01-15T12:59:43;98702.69;;;18.85
78369;BMP280;71113;43.092;-89.268;2024-01-15T13:02:11;98698.97;;;18.86
78369;BMP280;71113;43.092;-89.268;2024-01-15T13:04:37;98700.38;;;18.93
78369;BMP280;71113;43.092;-89.268;2024-01-15T13:07:03;98691.06;;;18.95
78369;BMP280;71113;43.092;-89.268;2024-01-15T13:09:29;98685.78;;;18.95
78369;BMP280;71113;43.092;-89.268;2024-01-15T13:11:55;98679.72;;;19.03
78369;BMP280;71113;43.092;-89.268;2024-01-15T13:14:21;98674.16;;;19.05
78369;BMP280;71113;43.092;-89.268;2024-01-15T13:16:47;98678.03;;;19.07
78369;BMP280;71113;43.092;-89.268;2024-01-15T13:19:13;98679.00;;;19.11
78369;BMP280;71113;43.092;-89.268;2024-01-15T13:21:42;98680.53;;;19.12
78369;BMP280;71113;43.092;-89.268;2024-01-15T13:24:08;98682.25;;;19.17
78369;BMP280;71113;43.092;-89.268;2024-01-15T13:26:35;98681.94;;;19.10
78369;BMP280;71113;43.092;-89.268;2024-01-15T13:29:04;98680.84;;;19.02
78369;BMP280;71113;43.092;-89.268;2024-01-15T13:31:31;98696.50;;;18.99
78369;BMP280;71113;43.092;-89.268;2024-01-15T13:33:57;98692.50;;;19.01
78369;BMP280;71113;43.092;-89.268;2024-01-15T13:36:24;98693.00;;;19.12
78369;BMP280;71113;43.092;-89.268;2024-01-15T13:38:50;98687.25;;;19.18
78369;BMP280;71113;43.092;-89.268;2024-01-15T13:41:17;98689.72;;;19.24
78369;BMP280;71113;43.092;-89.268;2024-01-15T13:44:01;98679.31;;;19.27
78369;BMP280;71113;43.092;-89.268;2024-01-15T13:46:29;98681.69;;;19.29
78369;BMP280;71113;43.092;-89.268;2024-01-15T13:48:55;98679.81;;;19.21
78369;BMP280;71113;43.092;-89.268;2024-01-15T13:51:24;98692.22;;;19.11
78369;BMP280;71113;43.092;-89.268;2024-01-15T13:53:50;98686.91;;;19.11
78369;BMP280;71113;43.092;-89.268;2024-01-15T13:56:16;98690.50;;;19.07